Terminal Aerodrome Forecast
Issued by NWS Memphis, TN

Home | Current Version | Previous Version | Text Only | Print | Product List | Glossary On
Versions: 1 2 3 4 5 6 7 8 9 10 11 12
000
FTUS44 KMEG 161120
TAFJBR
TAF
KJBR 161120Z 1612/1712 20007KT P6SM SCT250
     FM161600 20013G20KT P6SM SCT250
     FM170000 19006KT P6SM BKN150
     FM170300 17005KT P6SM VCSH SCT080 BKN150
     FM170800 21003KT 6SM -SHRA SCT035 OVC050
     FM171000 19003KT 4SM SHRA OVC010=

USA.gov is the U.S. government's official web portal to all federal, state and local government web resources and services.